createdAt,value
2019-01-04T00:01:33.675Z,58.80
2019-01-04T00:04:23.275Z,63.60
2019-01-04T00:06:55.178Z,54.13
2019-01-04T00:09:27.053Z,56.30
2019-01-04T00:12:03.044Z,58.25
2019-01-04T00:14:39.463Z,54.45
2019-01-04T00:17:11.344Z,64.53
2019-01-04T00:19:45.579Z,49.20
2019-01-04T00:22:17.470Z,59.93
2019-01-04T00:24:49.342Z,47.38
2019-01-04T00:27:21.569Z,51.33
2019-01-04T00:29:56.097Z,51.08
2019-01-04T00:32:29.097Z,50.25
2019-01-04T00:35:01.003Z,49.05
2019-01-04T00:37:40.467Z,46.88
2019-01-04T00:40:19.535Z,60.23
2019-01-04T00:42:51.435Z,58.38
2019-01-04T00:45:25.798Z,62.53
2019-01-04T00:48:00.793Z,58.65
2019-01-04T00:50:35.206Z,61.55
2019-01-04T00:53:07.109Z,60.70
2019-01-04T00:56:47.875Z,73.40
2019-01-04T01:00:17.736Z,59.85
2019-01-04T01:03:50.105Z,58.68
2019-01-04T01:07:42.454Z,55.38
2019-01-04T01:10:50.209Z,60.98
2019-01-04T01:14:19.973Z,63.40
2019-01-04T01:18:06.033Z,62.45
2019-01-04T01:21:40.317Z,57.58
2019-01-04T01:25:20.524Z,68.70
2019-01-04T01:29:03.329Z,61.70
2019-01-04T01:31:59.307Z,75.08
2019-01-04T01:35:26.909Z,60.28
2019-01-04T01:38:46.002Z,66.85
2019-01-04T01:42:32.713Z,66.90
2019-01-04T01:46:11.976Z,63.68
2019-01-04T01:49:30.897Z,50.03
2019-01-04T01:52:27.739Z,59.38
2019-01-04T01:54:59.611Z,60.33
2019-01-04T01:57:33.078Z,55.60
2019-01-04T02:00:08.486Z,52.08
2019-01-04T02:02:41.558Z,55.85
2019-01-04T02:05:13.475Z,51.63
2019-01-04T02:07:46.994Z,57.17
2019-01-04T02:10:18.920Z,50.98
2019-01-04T02:12:52.138Z,56.37
2019-01-04T02:15:32.251Z,51.10
2019-01-04T02:18:08.511Z,49.10
2019-01-04T02:20:40.444Z,47.38
2019-01-04T02:23:13.429Z,49.53
2019-01-04T02:25:52.952Z,51.55
2019-01-04T02:28:34.673Z,53.00
2019-01-04T02:31:05.922Z,51.37
2019-01-04T02:33:40.633Z,51.18
2019-01-04T02:36:18.597Z,45.35
2019-01-04T02:38:52.617Z,39.88
2019-01-04T02:41:26.010Z,40.23
2019-01-04T02:43:59.188Z,40.63
2019-01-04T02:46:32.135Z,40.98
2019-01-04T02:49:07.450Z,39.75
2019-01-04T02:51:39.343Z,37.53
2019-01-04T02:54:19.033Z,34.33
2019-01-04T02:56:53.332Z,37.33
2019-01-04T02:59:27.000Z,33.50
2019-01-04T03:02:04.308Z,38.65
2019-01-04T03:04:37.827Z,36.60
2019-01-04T03:07:09.724Z,37.93
2019-01-04T03:09:41.629Z,41.75
2019-01-04T03:12:13.495Z,37.45
2019-01-04T03:14:45.448Z,43.13
2019-01-04T03:17:18.942Z,31.65
2019-01-04T03:19:50.817Z,34.83
2019-01-04T03:22:23.724Z,33.33
2019-01-04T03:24:57.232Z,43.58
2019-01-04T03:27:29.141Z,38.20
2019-01-04T03:30:01.012Z,34.15
2019-01-04T03:32:32.913Z,36.90
2019-01-04T03:35:04.766Z,35.10
2019-01-04T03:37:36.671Z,40.88
2019-01-04T03:40:09.533Z,41.28
2019-01-04T03:42:42.406Z,37.58
2019-01-04T03:45:14.263Z,31.48
2019-01-04T03:47:46.524Z,42.70
2019-01-04T03:50:18.402Z,44.93
2019-01-04T03:52:50.261Z,39.35
2019-01-04T03:55:25.415Z,35.98
2019-01-04T03:57:57.279Z,37.60
2019-01-04T04:00:29.175Z,36.73
2019-01-04T04:03:01.049Z,35.90
2019-01-04T04:05:32.939Z,40.28
2019-01-04T04:08:04.814Z,37.10
2019-01-04T04:10:36.709Z,34.43
2019-01-04T04:13:08.580Z,34.20
2019-01-04T04:15:40.473Z,31.57
2019-01-04T04:18:12.379Z,37.23
2019-01-04T04:20:44.260Z,36.03
2019-01-04T04:23:16.120Z,33.75
2019-01-04T04:25:48.042Z,31.90
2019-01-04T04:28:19.949Z,32.95
2019-01-04T04:30:51.824Z,36.30
2019-01-04T04:33:26.166Z,39.08
2019-01-04T04:35:58.045Z,35.88
2019-01-04T04:38:29.959Z,38.70
2019-01-04T04:41:01.812Z,50.45
2019-01-04T04:43:33.705Z,40.50
2019-01-04T04:46:05.569Z,37.17
2019-01-04T04:48:37.546Z,37.33
2019-01-04T04:51:09.415Z,35.68
2019-01-04T04:53:41.300Z,38.70
2019-01-04T04:56:18.263Z,39.03
2019-01-04T04:58:50.126Z,45.63
2019-01-04T05:01:21.996Z,42.17
2019-01-04T05:03:53.902Z,39.40
2019-01-04T05:06:25.778Z,33.80
2019-01-04T05:08:57.650Z,43.98
2019-01-04T05:11:29.513Z,41.02
2019-01-04T05:14:01.499Z,41.55
2019-01-04T05:16:33.332Z,43.38
2019-01-04T05:19:05.208Z,44.45
2019-01-04T05:21:37.169Z,41.40
2019-01-04T05:24:09.029Z,41.40
2019-01-04T05:26:40.906Z,43.35
2019-01-04T05:29:12.810Z,45.65
2019-01-04T05:31:44.706Z,38.25
2019-01-04T05:34:16.654Z,43.42
2019-01-04T05:36:48.551Z,44.30
2019-01-04T05:39:20.496Z,42.15
2019-01-04T05:41:52.650Z,43.80
2019-01-04T05:44:24.538Z,47.75
2019-01-04T05:46:56.638Z,44.93
2019-01-04T05:49:28.505Z,41.95
2019-01-04T05:52:00.506Z,40.83
2019-01-04T05:54:34.640Z,46.13
2019-01-04T05:57:06.530Z,47.85
2019-01-04T05:59:41.283Z,49.67
2019-01-04T06:02:13.155Z,47.98
2019-01-04T06:04:45.041Z,44.60
2019-01-04T06:07:16.926Z,47.48
2019-01-04T06:09:48.858Z,47.30
2019-01-04T06:12:20.734Z,40.38
2019-01-04T06:14:52.640Z,44.83
2019-01-04T06:17:25.701Z,41.40
2019-01-04T06:19:58.990Z,41.25
2019-01-04T06:22:30.954Z,38.55
2019-01-04T06:25:02.828Z,45.60
2019-01-04T06:27:34.727Z,52.15
2019-01-04T06:30:10.449Z,43.90
2019-01-04T06:32:42.411Z,46.58
2019-01-04T06:35:14.277Z,47.50
2019-01-04T06:37:46.163Z,43.30
2019-01-04T06:40:18.009Z,43.20
2019-01-04T06:42:49.886Z,45.33
2019-01-04T06:45:23.378Z,42.10
2019-01-04T06:47:55.277Z,43.00
2019-01-04T06:50:27.248Z,47.03
2019-01-04T06:52:59.158Z,46.77
2019-01-04T06:55:56.082Z,48.02
2019-01-04T06:58:27.971Z,46.28
2019-01-04T07:00:59.858Z,44.40
2019-01-04T07:03:31.741Z,45.90
2019-01-04T07:06:03.609Z,46.80
2019-01-04T07:08:35.582Z,47.35
2019-01-04T07:11:10.326Z,40.25
2019-01-04T07:13:42.210Z,43.05
2019-01-04T07:16:16.880Z,46.18
2019-01-04T07:18:48.776Z,45.30
2019-01-04T07:21:20.671Z,48.38
2019-01-04T07:23:52.576Z,48.35
2019-01-04T07:26:24.441Z,49.08
2019-01-04T07:28:56.335Z,45.23
2019-01-04T07:31:28.553Z,38.75
2019-01-04T07:34:00.452Z,45.25
2019-01-04T07:36:32.334Z,48.58
2019-01-04T07:39:08.479Z,46.73
2019-01-04T07:41:40.372Z,41.20
2019-01-04T07:44:13.841Z,45.35
2019-01-04T07:46:45.707Z,43.85
2019-01-04T07:49:17.573Z,47.13
2019-01-04T07:51:54.019Z,42.62
2019-01-04T07:54:26.185Z,41.48
2019-01-04T07:56:59.678Z,40.43
2019-01-04T07:59:31.576Z,38.95
2019-01-04T08:02:39.945Z,42.53
2019-01-04T08:05:21.045Z,39.98
2019-01-04T08:07:57.348Z,42.95
2019-01-04T08:10:29.244Z,48.35
2019-01-04T08:13:01.121Z,41.88
2019-01-04T08:15:33.080Z,36.48
2019-01-04T08:18:07.750Z,43.05
2019-01-04T08:20:39.624Z,44.95
2019-01-04T08:23:11.507Z,42.60
2019-01-04T08:25:43.725Z,44.15
2019-01-04T08:28:16.822Z,44.38
2019-01-04T08:30:51.239Z,41.77
2019-01-04T08:33:27.534Z,40.92
2019-01-04T08:36:02.436Z,42.62
2019-01-04T08:38:35.511Z,46.23
2019-01-04T08:41:07.385Z,39.70
2019-01-04T08:43:39.452Z,40.17
2019-01-04T08:46:11.428Z,42.35
2019-01-04T08:48:43.331Z,42.78
2019-01-04T08:51:16.239Z,39.73
2019-01-04T08:54:03.725Z,40.78
2019-01-04T08:56:42.447Z,40.45
2019-01-04T08:59:19.572Z,38.67
2019-01-04T09:01:51.470Z,44.83
2019-01-04T09:04:23.356Z,40.33
2019-01-04T09:06:55.315Z,40.70
2019-01-04T09:09:27.222Z,42.67
2019-01-04T09:11:59.388Z,44.48
2019-01-04T09:14:31.351Z,44.38
2019-01-04T09:17:06.026Z,44.73
2019-01-04T09:19:39.463Z,43.28
2019-01-04T09:22:14.258Z,39.63
2019-01-04T09:24:48.443Z,41.98
2019-01-04T09:27:20.337Z,46.02
2019-01-04T09:29:55.173Z,46.75
2019-01-04T09:32:27.366Z,49.93
2019-01-04T09:35:04.330Z,38.53
2019-01-04T09:37:36.688Z,46.80
2019-01-04T09:40:18.861Z,51.10
2019-01-04T09:42:50.891Z,52.65
2019-01-04T09:45:23.026Z,57.13
2019-01-04T09:47:57.950Z,55.63
2019-01-04T09:50:29.865Z,50.98
2019-01-04T09:53:01.755Z,62.25
2019-01-04T09:55:36.560Z,51.77
2019-01-04T09:58:22.250Z,51.23
2019-01-04T10:00:54.173Z,52.73
2019-01-04T10:03:26.059Z,50.83
2019-01-04T10:06:00.831Z,54.53
2019-01-04T10:08:35.503Z,50.60
2019-01-04T10:11:11.713Z,47.40
2019-01-04T10:13:48.883Z,51.13
2019-01-04T10:16:21.110Z,47.43
2019-01-04T10:18:54.660Z,52.83
2019-01-04T10:21:28.349Z,51.08
2019-01-04T10:24:02.303Z,47.67
2019-01-04T10:26:34.167Z,51.20
2019-01-04T10:29:06.136Z,50.63
2019-01-04T10:31:38.052Z,55.25
2019-01-04T10:34:12.328Z,49.67
2019-01-04T10:36:48.192Z,52.90
2019-01-04T10:39:21.847Z,52.35
2019-01-04T10:41:53.714Z,45.15
2019-01-04T10:44:30.783Z,46.35
2019-01-04T10:47:03.643Z,48.87
2019-01-04T10:49:38.166Z,43.63
2019-01-04T10:52:10.045Z,47.27
2019-01-04T10:54:43.982Z,49.80
2019-01-04T10:57:21.338Z,47.78
2019-01-04T10:59:56.337Z,43.05
2019-01-04T11:02:31.751Z,45.03
2019-01-04T11:05:06.993Z,36.50
2019-01-04T11:07:39.225Z,40.20
2019-01-04T11:10:11.732Z,42.70
2019-01-04T11:12:43.602Z,50.08
2019-01-04T11:15:15.528Z,46.25
2019-01-04T11:17:48.100Z,44.23
2019-01-04T11:20:46.578Z,38.25
2019-01-04T11:24:30.702Z,39.05
2019-01-04T11:27:13.143Z,39.85
2019-01-04T11:30:48.502Z,41.85
2019-01-04T11:34:11.547Z,37.25
2019-01-04T11:37:53.592Z,34.65
2019-01-04T11:41:16.528Z,33.92
2019-01-04T11:44:54.348Z,31.93
2019-01-04T11:48:10.738Z,40.08
2019-01-04T11:51:10.374Z,35.43
2019-01-04T11:53:43.871Z,33.35
2019-01-04T11:56:15.773Z,38.80
2019-01-04T11:58:47.670Z,36.83
2019-01-04T12:01:19.559Z,33.70
2019-01-04T12:03:59.933Z,35.98
2019-01-04T12:06:31.814Z,31.25
2019-01-04T12:09:04.108Z,28.65
2019-01-04T12:11:36.004Z,23.07
2019-01-04T12:14:56.382Z,29.37
2019-01-04T12:17:28.255Z,24.98
2019-01-04T12:20:03.768Z,26.15
2019-01-04T12:22:34.740Z,27.45
2019-01-04T12:25:06.991Z,31.05
2019-01-04T12:27:38.876Z,87.80
2019-01-04T12:30:11.140Z,35.50
2019-01-04T12:32:43.073Z,41.48
2019-01-04T12:35:15.082Z,31.23
2019-01-04T12:37:46.945Z,33.13
2019-01-04T12:40:19.177Z,24.77
2019-01-04T12:42:51.080Z,29.80
2019-01-04T12:45:23.000Z,33.48
2019-01-04T12:47:54.886Z,31.55
2019-01-04T12:50:26.834Z,37.10
2019-01-04T12:52:58.713Z,34.90
2019-01-04T12:55:31.710Z,45.17
2019-01-04T12:58:03.614Z,35.65
2019-01-04T13:00:35.800Z,35.28
2019-01-04T13:03:07.696Z,35.28
2019-01-04T13:05:39.575Z,28.73
2019-01-04T13:08:11.461Z,34.03
2019-01-04T13:10:43.458Z,30.97
2019-01-04T13:13:17.041Z,29.67
2019-01-04T13:15:48.933Z,31.23
2019-01-04T13:18:22.093Z,32.33
2019-01-04T13:20:57.103Z,28.62
2019-01-04T13:23:28.988Z,30.02
2019-01-04T13:26:00.906Z,29.80
2019-01-04T13:28:32.821Z,28.27
2019-01-04T13:31:04.697Z,31.10
2019-01-04T13:33:37.653Z,27.87
2019-01-04T13:36:10.323Z,34.35
2019-01-04T13:38:42.509Z,25.72
2019-01-04T13:41:14.591Z,28.57
2019-01-04T13:43:46.476Z,26.50
2019-01-04T13:46:23.825Z,27.70
2019-01-04T13:48:57.382Z,28.38
2019-01-04T13:51:29.303Z,24.55
2019-01-04T13:56:38.849Z,28.62
2019-01-04T13:59:16.916Z,30.90
2019-01-04T14:01:48.878Z,32.33
2019-01-04T14:04:20.966Z,32.23
2019-01-04T14:06:52.933Z,30.88
2019-01-04T14:09:24.865Z,38.58
2019-01-04T14:11:56.750Z,33.42
2019-01-04T14:14:28.651Z,30.45
2019-01-04T14:17:00.542Z,33.33
2019-01-04T14:19:35.262Z,32.85
2019-01-04T14:22:07.290Z,34.73
2019-01-04T14:24:40.047Z,32.70
2019-01-04T14:27:12.034Z,33.15
2019-01-04T14:29:43.937Z,34.48
2019-01-04T14:32:15.850Z,31.87
2019-01-04T14:34:47.906Z,37.20
2019-01-04T14:37:21.558Z,38.30
2019-01-04T14:39:53.438Z,29.75
2019-01-04T14:42:25.483Z,31.07
2019-01-04T14:44:59.121Z,31.23
2019-01-04T14:47:31.024Z,27.90
2019-01-04T14:50:02.948Z,30.68
2019-01-04T14:52:35.121Z,28.60
2019-01-04T14:55:07.224Z,30.77
2019-01-04T14:57:39.112Z,30.75
2019-01-04T15:00:13.542Z,28.12
2019-01-04T15:02:45.495Z,27.15
2019-01-04T15:05:17.359Z,26.48
2019-01-04T15:07:49.291Z,26.57
2019-01-04T15:10:21.197Z,24.32
2019-01-04T15:12:53.344Z,25.62
2019-01-04T15:15:25.230Z,26.35
2019-01-04T15:17:57.398Z,25.65
2019-01-04T15:20:30.561Z,25.97
2019-01-04T15:23:05.441Z,27.58
2019-01-04T15:25:37.334Z,30.85
2019-01-04T15:28:09.282Z,24.65
2019-01-04T15:30:41.174Z,27.85
2019-01-04T15:33:13.099Z,26.23
2019-01-04T15:35:45.078Z,24.87
2019-01-04T15:38:16.951Z,25.72
2019-01-04T15:40:48.847Z,26.90
2019-01-04T15:43:20.727Z,23.57
2019-01-04T15:45:52.632Z,22.80
2019-01-04T15:48:24.513Z,25.82
2019-01-04T15:50:56.441Z,27.87
2019-01-04T15:53:28.314Z,28.07
2019-01-04T15:56:00.503Z,37.90
2019-01-04T15:58:32.377Z,33.08
2019-01-04T16:01:05.631Z,33.05
2019-01-04T16:03:37.495Z,29.40
2019-01-04T16:06:09.536Z,34.75
2019-01-04T16:08:41.606Z,31.30
2019-01-04T16:11:13.573Z,30.32
2019-01-04T16:13:47.080Z,28.70
2019-01-04T16:16:19.112Z,28.35
2019-01-04T16:18:50.964Z,29.57
2019-01-04T16:21:22.906Z,29.48
2019-01-04T16:23:54.791Z,29.45
2019-01-04T16:26:29.486Z,30.45
2019-01-04T16:29:01.574Z,29.70
2019-01-04T16:31:33.482Z,30.80
2019-01-04T16:34:05.392Z,31.90
2019-01-04T16:36:39.067Z,25.23
2019-01-04T16:39:10.975Z,28.20
2019-01-04T16:41:44.616Z,27.07
2019-01-04T16:44:16.510Z,24.20
2019-01-04T16:46:48.426Z,30.17
2019-01-04T16:49:20.445Z,33.63
2019-01-04T16:51:52.378Z,27.87
2019-01-04T16:54:27.500Z,29.65
2019-01-04T16:57:00.660Z,31.90
2019-01-04T16:59:32.615Z,38.25
2019-01-04T17:02:06.211Z,38.60
2019-01-04T17:04:38.412Z,38.70
2019-01-04T17:07:10.260Z,34.05
2019-01-04T17:09:43.404Z,32.93
2019-01-04T17:12:15.320Z,30.10
2019-01-04T17:14:49.275Z,32.60
2019-01-04T17:17:21.149Z,32.42
2019-01-04T17:19:53.087Z,28.15
2019-01-04T17:22:24.970Z,25.05
2019-01-04T17:24:56.900Z,26.12
2019-01-04T17:27:28.788Z,31.68
2019-01-04T17:30:00.678Z,27.65
2019-01-04T17:32:32.648Z,24.32
2019-01-04T17:35:04.975Z,22.80
2019-01-04T17:37:36.899Z,27.02
2019-01-04T17:40:10.321Z,26.80
2019-01-04T17:42:43.913Z,25.52
2019-01-04T17:45:15.803Z,27.10
2019-01-04T17:47:47.776Z,24.77
2019-01-04T17:50:19.655Z,24.85
2019-01-04T17:52:51.647Z,22.62
2019-01-04T17:55:23.568Z,25.32
2019-01-04T17:57:55.996Z,25.37
2019-01-04T18:00:28.249Z,26.37
2019-01-04T18:03:00.857Z,25.48
2019-01-04T18:05:35.508Z,25.05
2019-01-04T18:08:07.394Z,31.05
2019-01-04T18:10:42.309Z,28.20
2019-01-04T18:13:16.274Z,28.73
2019-01-04T18:15:51.322Z,29.23
2019-01-04T18:18:26.266Z,33.33
2019-01-04T18:21:05.440Z,37.40
2019-01-04T18:23:43.844Z,33.25
2019-01-04T18:26:17.324Z,31.17
2019-01-04T18:28:53.914Z,34.20
2019-01-04T18:31:30.205Z,29.20
2019-01-04T18:34:02.060Z,33.75
2019-01-04T18:36:39.992Z,32.83
2019-01-04T18:39:11.916Z,36.45
2019-01-04T18:41:45.699Z,36.13
2019-01-04T18:44:20.554Z,34.90
2019-01-04T18:46:52.597Z,40.55
2019-01-04T18:49:27.340Z,37.28
2019-01-04T18:51:59.258Z,41.85
2019-01-04T18:54:36.697Z,35.28
2019-01-04T18:57:11.162Z,35.40
2019-01-04T18:59:43.030Z,40.40
2019-01-04T19:02:15.141Z,34.43
2019-01-04T19:04:47.004Z,28.90
2019-01-04T19:07:19.404Z,32.28
2019-01-04T19:09:53.993Z,27.52
2019-01-04T19:12:26.244Z,31.23
2019-01-04T19:14:58.162Z,32.98
2019-01-04T19:17:30.119Z,32.65
2019-01-04T19:20:02.004Z,34.63
2019-01-04T19:22:35.541Z,33.92
2019-01-04T19:25:07.524Z,35.00
2019-01-04T19:27:45.768Z,35.50
2019-01-04T19:30:18.863Z,34.55
2019-01-04T19:32:56.225Z,36.00
2019-01-04T19:35:28.178Z,39.13
2019-01-04T19:38:00.320Z,33.53
2019-01-04T19:40:33.585Z,36.70
2019-01-04T19:43:12.933Z,41.42
2019-01-04T19:45:45.570Z,33.90
2019-01-04T19:48:19.374Z,37.90
2019-01-04T19:50:55.755Z,36.42
2019-01-04T19:53:27.691Z,37.15
2019-01-04T19:56:00.563Z,35.92
2019-01-04T19:58:35.507Z,38.78
2019-01-04T20:01:07.654Z,38.78
2019-01-04T20:03:41.983Z,45.63
2019-01-04T20:07:24.427Z,39.65
2019-01-04T20:11:19.806Z,46.77
2019-01-04T20:15:16.904Z,36.15
2019-01-04T20:18:15.288Z,37.65
2019-01-04T20:21:06.151Z,40.35
2019-01-04T20:23:57.832Z,37.93
2019-01-04T20:26:49.177Z,38.58
2019-01-04T20:29:57.514Z,43.85
2019-01-04T20:32:59.612Z,37.50
2019-01-04T20:35:52.289Z,39.80
2019-01-04T20:38:41.928Z,46.98
2019-01-04T20:41:31.245Z,42.67
2019-01-04T20:44:16.442Z,43.65
2019-01-04T20:47:05.707Z,45.38
2019-01-04T20:49:59.277Z,40.00
2019-01-04T20:52:59.730Z,39.03
2019-01-04T20:55:50.503Z,39.78
2019-01-04T20:58:42.591Z,39.73
2019-01-04T21:01:36.567Z,38.25
2019-01-04T21:04:27.691Z,39.38
2019-01-04T21:07:17.141Z,43.02
2019-01-04T21:10:01.887Z,42.40
2019-01-04T21:12:54.631Z,41.60
2019-01-04T21:15:48.327Z,38.75
2019-01-04T21:18:37.805Z,40.95
2019-01-04T21:21:47.309Z,40.35
2019-01-04T21:24:39.511Z,37.95
2019-01-04T21:27:36.394Z,60.67
2019-01-04T21:30:28.304Z,45.33
2019-01-04T21:33:22.176Z,35.92
2019-01-04T21:36:32.317Z,41.00
2019-01-04T21:39:29.189Z,37.33
2019-01-04T21:42:45.053Z,40.08
2019-01-04T21:45:35.776Z,35.95
2019-01-04T21:48:27.420Z,35.73
2019-01-04T21:51:20.975Z,36.53
2019-01-04T21:54:08.952Z,35.55
2019-01-04T21:57:06.979Z,41.28
2019-01-04T21:59:57.742Z,36.42
2019-01-04T22:02:57.376Z,38.65
2019-01-04T22:05:46.662Z,34.98
2019-01-04T22:08:37.433Z,35.10
2019-01-04T22:11:39.516Z,36.45
2019-01-04T22:14:36.244Z,34.75
2019-01-04T22:17:26.166Z,34.45
2019-01-04T22:20:17.614Z,36.10
2019-01-04T22:23:09.016Z,35.65
2019-01-04T22:25:58.453Z,35.58
2019-01-04T22:28:50.814Z,35.90
2019-01-04T22:31:50.889Z,38.73
2019-01-04T22:34:32.929Z,39.63
2019-01-04T22:37:22.525Z,36.30
2019-01-04T22:40:16.338Z,36.85
2019-01-04T22:43:07.114Z,37.20
2019-01-04T22:46:11.625Z,38.80
2019-01-04T22:49:01.081Z,39.60
2019-01-04T22:51:50.500Z,41.88
2019-01-04T22:54:41.252Z,33.98
2019-01-04T22:57:31.088Z,36.33
2019-01-04T23:00:37.256Z,35.20
2019-01-04T23:03:26.777Z,38.25
2019-01-04T23:06:16.175Z,35.05
2019-01-04T23:09:16.062Z,39.67
2019-01-04T23:12:16.205Z,38.60
2019-01-04T23:15:04.451Z,38.55
2019-01-04T23:17:57.593Z,36.28
2019-01-04T23:21:00.615Z,38.90
2019-01-04T23:23:57.624Z,38.02
2019-01-04T23:27:03.490Z,36.53
2019-01-04T23:30:02.997Z,42.95
2019-01-04T23:32:49.169Z,40.20
2019-01-04T23:35:41.555Z,34.00
2019-01-04T23:38:31.361Z,40.73
2019-01-04T23:41:26.324Z,41.10
2019-01-04T23:44:15.943Z,40.28
2019-01-04T23:47:05.544Z,36.30
2019-01-04T23:49:39.394Z,40.58
2019-01-04T23:52:33.194Z,36.17
2019-01-04T23:55:21.797Z,37.70
2019-01-04T23:58:11.601Z,36.68
